sensor_id;sensor_type;location;lat;lon;timestamp;P1;durP1;ratioP1;P2;durP2;ratioP2
11473;SDS011;5793;52.238;13.438;2024-03-06T00:01:16;32.87;;;18.90;;
11473;SDS011;5793;52.238;13.438;2024-03-06T00:03:44;28.70;;;18.77;;
11473;SDS011;5793;52.238;13.438;2024-03-06T00:06:13;26.90;;;18.10;;
11473;SDS011;5793;52.238;13.438;2024-03-06T00:08:41;31.20;;;18.77;;
11473;SDS011;5793;52.238;13.438;2024-03-06T00:11:09;25.30;;;16.83;;
11473;SDS011;5793;52.238;13.438;2024-03-06T00:13:37;32.27;;;19.53;;
11473;SDS011;5793;52.238;13.438;2024-03-06T00:16:05;32.10;;;19.03;;
11473;SDS011;5793;52.238;13.438;2024-03-06T00:18:33;30.53;;;18.03;;
11473;SDS011;5793;52.238;13.438;2024-03-06T00:21:01;27.53;;;18.13;;
11473;SDS011;5793;52.238;13.438;2024-03-06T00:23:30;32.70;;;17.70;;
11473;SDS011;5793;52.238;13.438;2024-03-06T00:25:58;319.27;;;46.13;;
11473;SDS011;5793;52.238;13.438;2024-03-06T00:28:26;31.33;;;18.53;;
11473;SDS011;5793;52.238;13.438;2024-03-06T00:30:54;35.33;;;20.03;;
11473;SDS011;5793;52.238;13.438;2024-03-06T00:33:22;33.47;;;20.17;;
11473;SDS011;5793;52.238;13.438;2024-03-06T00:35:50;33.80;;;20.20;;
11473;SDS011;5793;52.238;13.438;2024-03-06T00:38:18;35.90;;;21.30;;
11473;SDS011;5793;52.238;13.438;2024-03-06T00:40:47;32.23;;;18.47;;
11473;SDS011;5793;52.238;13.438;2024-03-06T00:43:15;28.23;;;18.23;;
11473;SDS011;5793;52.238;13.438;2024-03-06T00:45:43;31.03;;;18.97;;
11473;SDS011;5793;52.238;13.438;2024-03-06T00:48:11;35.00;;;20.53;;
11473;SDS011;5793;52.238;13.438;2024-03-06T00:50:39;34.30;;;19.83;;
11473;SDS011;5793;52.238;13.438;2024-03-06T00:53:06;32.77;;;19.70;;
11473;SDS011;5793;52.238;13.438;2024-03-06T00:55:35;35.00;;;19.83;;
11473;SDS011;5793;52.238;13.438;2024-03-06T00:58:04;35.63;;;19.23;;
11473;SDS011;5793;52.238;13.438;2024-03-06T01:00:33;31.70;;;18.60;;
11473;SDS011;5793;52.238;13.438;2024-03-06T01:03:01;36.37;;;20.63;;
11473;SDS011;5793;52.238;13.438;2024-03-06T01:05:29;31.77;;;19.70;;
11473;SDS011;5793;52.238;13.438;2024-03-06T01:07:56;33.20;;;19.57;;
11473;SDS011;5793;52.238;13.438;2024-03-06T01:10:25;31.33;;;19.67;;
11473;SDS011;5793;52.238;13.438;2024-03-06T01:12:53;31.83;;;19.67;;
11473;SDS011;5793;52.238;13.438;2024-03-06T01:15:22;35.43;;;19.20;;
11473;SDS011;5793;52.238;13.438;2024-03-06T01:17:50;31.37;;;18.03;;
11473;SDS011;5793;52.238;13.438;2024-03-06T01:20:18;32.73;;;18.63;;
11473;SDS011;5793;52.238;13.438;2024-03-06T01:22:46;30.50;;;19.27;;
11473;SDS011;5793;52.238;13.438;2024-03-06T01:25:14;31.90;;;18.97;;
11473;SDS011;5793;52.238;13.438;2024-03-06T01:27:41;30.30;;;18.67;;
11473;SDS011;5793;52.238;13.438;2024-03-06T01:30:09;31.63;;;18.73;;
11473;SDS011;5793;52.238;13.438;2024-03-06T01:32:39;35.30;;;20.23;;
11473;SDS011;5793;52.238;13.438;2024-03-06T01:35:07;31.10;;;18.20;;
11473;SDS011;5793;52.238;13.438;2024-03-06T01:37:35;29.87;;;18.27;;
11473;SDS011;5793;52.238;13.438;2024-03-06T01:40:03;32.93;;;19.43;;
11473;SDS011;5793;52.238;13.438;2024-03-06T01:42:33;31.57;;;19.13;;
11473;SDS011;5793;52.238;13.438;2024-03-06T01:45:01;36.03;;;20.83;;
11473;SDS011;5793;52.238;13.438;2024-03-06T01:47:29;34.90;;;20.60;;
11473;SDS011;5793;52.238;13.438;2024-03-06T01:49:58;31.80;;;18.47;;
11473;SDS011;5793;52.238;13.438;2024-03-06T01:52:28;33.80;;;20.30;;
11473;SDS011;5793;52.238;13.438;2024-03-06T01:54:56;32.37;;;20.50;;
11473;SDS011;5793;52.238;13.438;2024-03-06T01:57:24;34.13;;;19.90;;
11473;SDS011;5793;52.238;13.438;2024-03-06T01:59:52;38.30;;;20.90;;
11473;SDS011;5793;52.238;13.438;2024-03-06T02:02:20;37.40;;;21.13;;
11473;SDS011;5793;52.238;13.438;2024-03-06T02:04:48;30.97;;;19.90;;
11473;SDS011;5793;52.238;13.438;2024-03-06T02:07:17;32.77;;;20.27;;
11473;SDS011;5793;52.238;13.438;2024-03-06T02:09:47;32.47;;;19.77;;
11473;SDS011;5793;52.238;13.438;2024-03-06T02:12:16;30.50;;;19.37;;
11473;SDS011;5793;52.238;13.438;2024-03-06T02:14:44;30.00;;;18.83;;
11473;SDS011;5793;52.238;13.438;2024-03-06T02:17:12;30.30;;;19.07;;
11473;SDS011;5793;52.238;13.438;2024-03-06T02:19:40;32.33;;;19.17;;
11473;SDS011;5793;52.238;13.438;2024-03-06T02:22:11;29.60;;;18.53;;
11473;SDS011;5793;52.238;13.438;2024-03-06T02:24:42;29.23;;;18.97;;
11473;SDS011;5793;52.238;13.438;2024-03-06T02:27:12;29.90;;;18.27;;
11473;SDS011;5793;52.238;13.438;2024-03-06T02:29:39;28.77;;;17.97;;
11473;SDS011;5793;52.238;13.438;2024-03-06T02:32:07;32.87;;;18.47;;
11473;SDS011;5793;52.238;13.438;2024-03-06T02:34:35;27.10;;;18.40;;
11473;SDS011;5793;52.238;13.438;2024-03-06T02:37:03;31.63;;;18.97;;
11473;SDS011;5793;52.238;13.438;2024-03-06T02:39:32;27.57;;;18.00;;
11473;SDS011;5793;52.238;13.438;2024-03-06T02:42:00;29.90;;;18.87;;
11473;SDS011;5793;52.238;13.438;2024-03-06T02:44:29;29.83;;;17.40;;
11473;SDS011;5793;52.238;13.438;2024-03-06T02:46:57;29.33;;;17.87;;
11473;SDS011;5793;52.238;13.438;2024-03-06T02:49:24;26.53;;;16.83;;
11473;SDS011;5793;52.238;13.438;2024-03-06T02:51:52;27.90;;;17.33;;
11473;SDS011;5793;52.238;13.438;2024-03-06T02:54:20;33.10;;;18.70;;
11473;SDS011;5793;52.238;13.438;2024-03-06T02:56:52;33.27;;;19.07;;
11473;SDS011;5793;52.238;13.438;2024-03-06T02:59:19;30.87;;;16.80;;
11473;SDS011;5793;52.238;13.438;2024-03-06T03:01:47;29.87;;;17.73;;
11473;SDS011;5793;52.238;13.438;2024-03-06T03:04:15;27.07;;;17.07;;
11473;SDS011;5793;52.238;13.438;2024-03-06T03:06:43;31.23;;;19.20;;
11473;SDS011;5793;52.238;13.438;2024-03-06T03:09:11;28.70;;;16.77;;
11473;SDS011;5793;52.238;13.438;2024-03-06T03:11:41;26.97;;;17.43;;
11473;SDS011;5793;52.238;13.438;2024-03-06T03:14:11;26.50;;;17.60;;
11473;SDS011;5793;52.238;13.438;2024-03-06T03:16:39;29.90;;;18.77;;
11473;SDS011;5793;52.238;13.438;2024-03-06T03:19:08;28.90;;;17.63;;
11473;SDS011;5793;52.238;13.438;2024-03-06T03:21:35;30.13;;;19.33;;
11473;SDS011;5793;52.238;13.438;2024-03-06T03:24:04;34.27;;;20.80;;
11473;SDS011;5793;52.238;13.438;2024-03-06T03:26:32;28.80;;;18.70;;
11473;SDS011;5793;52.238;13.438;2024-03-06T03:29:00;31.33;;;18.93;;
11473;SDS011;5793;52.238;13.438;2024-03-06T03:31:29;31.07;;;19.97;;
11473;SDS011;5793;52.238;13.438;2024-03-06T03:33:57;33.07;;;20.70;;
11473;SDS011;5793;52.238;13.438;2024-03-06T03:36:25;32.77;;;19.57;;
11473;SDS011;5793;52.238;13.438;2024-03-06T03:38:52;35.70;;;20.77;;
11473;SDS011;5793;52.238;13.438;2024-03-06T03:41:20;35.07;;;21.13;;
11473;SDS011;5793;52.238;13.438;2024-03-06T03:43:48;32.70;;;19.70;;
11473;SDS011;5793;52.238;13.438;2024-03-06T03:46:16;33.93;;;18.83;;
11473;SDS011;5793;52.238;13.438;2024-03-06T03:48:45;29.53;;;17.53;;
11473;SDS011;5793;52.238;13.438;2024-03-06T03:51:13;31.63;;;18.47;;
11473;SDS011;5793;52.238;13.438;2024-03-06T03:53:40;32.30;;;19.20;;
11473;SDS011;5793;52.238;13.438;2024-03-06T03:56:08;31.77;;;18.83;;
11473;SDS011;5793;52.238;13.438;2024-03-06T03:58:36;29.63;;;18.03;;
11473;SDS011;5793;52.238;13.438;2024-03-06T04:01:05;27.90;;;17.43;;
11473;SDS011;5793;52.238;13.438;2024-03-06T04:03:33;30.20;;;17.87;;
11473;SDS011;5793;52.238;13.438;2024-03-06T04:06:02;27.80;;;17.33;;
11473;SDS011;5793;52.238;13.438;2024-03-06T04:08:30;28.23;;;18.40;;
11473;SDS011;5793;52.238;13.438;2024-03-06T04:10:58;26.97;;;16.87;;
11473;SDS011;5793;52.238;13.438;2024-03-06T04:13:26;31.33;;;18.83;;
11473;SDS011;5793;52.238;13.438;2024-03-06T04:15:54;28.17;;;18.23;;
11473;SDS011;5793;52.238;13.438;2024-03-06T04:18:21;26.90;;;17.43;;
11473;SDS011;5793;52.238;13.438;2024-03-06T04:20:49;29.17;;;17.40;;
11473;SDS011;5793;52.238;13.438;2024-03-06T04:23:18;28.13;;;17.57;;
11473;SDS011;5793;52.238;13.438;2024-03-06T04:25:46;26.47;;;17.13;;
11473;SDS011;5793;52.238;13.438;2024-03-06T04:28:14;31.00;;;17.83;;
11473;SDS011;5793;52.238;13.438;2024-03-06T04:30:42;28.03;;;17.40;;
11473;SDS011;5793;52.238;13.438;2024-03-06T04:33:10;29.17;;;17.63;;
11473;SDS011;5793;52.238;13.438;2024-03-06T04:35:40;23.77;;;16.50;;
11473;SDS011;5793;52.238;13.438;2024-03-06T04:38:08;28.30;;;17.50;;
11473;SDS011;5793;52.238;13.438;2024-03-06T04:40:37;27.43;;;17.43;;
11473;SDS011;5793;52.238;13.438;2024-03-06T04:43:05;25.87;;;17.23;;
11473;SDS011;5793;52.238;13.438;2024-03-06T04:45:33;25.97;;;16.23;;
11473;SDS011;5793;52.238;13.438;2024-03-06T04:48:01;25.07;;;16.87;;
11473;SDS011;5793;52.238;13.438;2024-03-06T04:50:29;28.57;;;16.30;;
11473;SDS011;5793;52.238;13.438;2024-03-06T04:52:57;23.50;;;15.37;;
11473;SDS011;5793;52.238;13.438;2024-03-06T04:55:25;31.07;;;17.43;;
11473;SDS011;5793;52.238;13.438;2024-03-06T04:57:54;24.60;;;16.97;;
11473;SDS011;5793;52.238;13.438;2024-03-06T05:00:22;25.10;;;16.20;;
11473;SDS011;5793;52.238;13.438;2024-03-06T05:02:50;24.63;;;15.93;;
11473;SDS011;5793;52.238;13.438;2024-03-06T05:05:35;104.40;;;27.20;;
11473;SDS011;5793;52.238;13.438;2024-03-06T05:08:21;27.70;;;16.57;;
11473;SDS011;5793;52.238;13.438;2024-03-06T05:11:07;33.60;;;18.17;;
11473;SDS011;5793;52.238;13.438;2024-03-06T05:13:54;44.93;;;18.33;;
11473;SDS011;5793;52.238;13.438;2024-03-06T05:16:39;37.10;;;16.93;;
11473;SDS011;5793;52.238;13.438;2024-03-06T05:19:25;36.73;;;19.13;;
11473;SDS011;5793;52.238;13.438;2024-03-06T05:22:15;31.90;;;17.07;;
11473;SDS011;5793;52.238;13.438;2024-03-06T05:25:01;29.03;;;17.47;;
11473;SDS011;5793;52.238;13.438;2024-03-06T05:27:47;29.57;;;18.23;;
11473;SDS011;5793;52.238;13.438;2024-03-06T05:30:34;31.13;;;18.67;;
11473;SDS011;5793;52.238;13.438;2024-03-06T05:33:19;32.25;;;19.65;;
11473;SDS011;5793;52.238;13.438;2024-03-06T05:36:05;32.63;;;18.77;;
11473;SDS011;5793;52.238;13.438;2024-03-06T05:38:51;31.90;;;19.77;;
11473;SDS011;5793;52.238;13.438;2024-03-06T05:41:36;34.53;;;20.47;;
11473;SDS011;5793;52.238;13.438;2024-03-06T05:44:20;32.43;;;19.07;;
11473;SDS011;5793;52.238;13.438;2024-03-06T05:47:07;33.80;;;19.00;;
11473;SDS011;5793;52.238;13.438;2024-03-06T05:49:52;35.10;;;19.63;;
11473;SDS011;5793;52.238;13.438;2024-03-06T05:52:38;33.93;;;20.20;;
11473;SDS011;5793;52.238;13.438;2024-03-06T05:55:23;33.70;;;19.73;;
11473;SDS011;5793;52.238;13.438;2024-03-06T05:58:09;33.17;;;20.30;;
11473;SDS011;5793;52.238;13.438;2024-03-06T06:00:41;37.57;;;20.70;;
11473;SDS011;5793;52.238;13.438;2024-03-06T06:03:10;36.00;;;20.23;;
11473;SDS011;5793;52.238;13.438;2024-03-06T06:05:38;37.83;;;20.83;;
11473;SDS011;5793;52.238;13.438;2024-03-06T06:08:07;33.77;;;20.67;;
11473;SDS011;5793;52.238;13.438;2024-03-06T06:10:35;33.53;;;18.63;;
11473;SDS011;5793;52.238;13.438;2024-03-06T06:13:03;35.00;;;19.17;;
11473;SDS011;5793;52.238;13.438;2024-03-06T06:15:31;31.27;;;19.27;;
11473;SDS011;5793;52.238;13.438;2024-03-06T06:17:59;31.57;;;20.70;;
11473;SDS011;5793;52.238;13.438;2024-03-06T06:20:29;31.17;;;18.67;;
11473;SDS011;5793;52.238;13.438;2024-03-06T06:22:57;29.63;;;19.27;;
11473;SDS011;5793;52.238;13.438;2024-03-06T06:25:25;32.77;;;19.33;;
11473;SDS011;5793;52.238;13.438;2024-03-06T06:27:52;34.73;;;19.73;;
11473;SDS011;5793;52.238;13.438;2024-03-06T06:30:20;33.33;;;19.27;;
11473;SDS011;5793;52.238;13.438;2024-03-06T06:32:48;34.00;;;21.20;;
11473;SDS011;5793;52.238;13.438;2024-03-06T06:35:16;30.27;;;19.00;;
11473;SDS011;5793;52.238;13.438;2024-03-06T06:37:45;37.90;;;20.57;;
11473;SDS011;5793;52.238;13.438;2024-03-06T06:40:13;33.27;;;20.43;;
11473;SDS011;5793;52.238;13.438;2024-03-06T06:42:44;41.43;;;21.77;;
11473;SDS011;5793;52.238;13.438;2024-03-06T06:45:13;38.40;;;22.43;;
11473;SDS011;5793;52.238;13.438;2024-03-06T06:47:41;38.10;;;23.30;;
11473;SDS011;5793;52.238;13.438;2024-03-06T06:50:09;36.10;;;21.63;;
11473;SDS011;5793;52.238;13.438;2024-03-06T06:52:38;34.83;;;21.40;;
11473;SDS011;5793;52.238;13.438;2024-03-06T06:55:07;39.80;;;24.70;;
11473;SDS011;5793;52.238;13.438;2024-03-06T06:57:38;43.07;;;27.33;;
11473;SDS011;5793;52.238;13.438;2024-03-06T07:00:06;46.73;;;28.03;;
11473;SDS011;5793;52.238;13.438;2024-03-06T07:02:38;48.63;;;28.80;;
11473;SDS011;5793;52.238;13.438;2024-03-06T07:05:07;47.70;;;27.70;;
11473;SDS011;5793;52.238;13.438;2024-03-06T07:07:36;52.17;;;28.13;;
11473;SDS011;5793;52.238;13.438;2024-03-06T07:10:05;52.67;;;27.90;;
11473;SDS011;5793;52.238;13.438;2024-03-06T07:12:35;48.87;;;26.07;;
11473;SDS011;5793;52.238;13.438;2024-03-06T07:15:03;51.17;;;27.67;;
11473;SDS011;5793;52.238;13.438;2024-03-06T07:17:32;49.80;;;26.10;;
11473;SDS011;5793;52.238;13.438;2024-03-06T07:20:00;81.73;;;28.77;;
11473;SDS011;5793;52.238;13.438;2024-03-06T07:22:31;56.47;;;27.40;;
11473;SDS011;5793;52.238;13.438;2024-03-06T07:25:00;59.93;;;27.73;;
11473;SDS011;5793;52.238;13.438;2024-03-06T07:27:29;40.33;;;23.77;;
11473;SDS011;5793;52.238;13.438;2024-03-06T07:29:58;53.63;;;26.67;;
11473;SDS011;5793;52.238;13.438;2024-03-06T07:32:26;44.57;;;24.30;;
11473;SDS011;5793;52.238;13.438;2024-03-06T07:34:54;40.60;;;23.27;;
11473;SDS011;5793;52.238;13.438;2024-03-06T07:37:21;41.43;;;21.53;;
11473;SDS011;5793;52.238;13.438;2024-03-06T07:39:49;42.63;;;22.03;;
11473;SDS011;5793;52.238;13.438;2024-03-06T07:42:19;46.70;;;23.57;;
11473;SDS011;5793;52.238;13.438;2024-03-06T07:44:48;59.67;;;24.83;;
11473;SDS011;5793;52.238;13.438;2024-03-06T07:47:16;59.73;;;24.27;;
11473;SDS011;5793;52.238;13.438;2024-03-06T07:49:44;89.03;;;26.40;;
11473;SDS011;5793;52.238;13.438;2024-03-06T07:52:13;66.90;;;26.20;;
11473;SDS011;5793;52.238;13.438;2024-03-06T07:54:41;55.10;;;23.73;;
11473;SDS011;5793;52.238;13.438;2024-03-06T07:57:08;57.63;;;24.00;;
11473;SDS011;5793;52.238;13.438;2024-03-06T07:59:36;58.47;;;24.77;;
11473;SDS011;5793;52.238;13.438;2024-03-06T08:02:06;60.53;;;25.93;;
11473;SDS011;5793;52.238;13.438;2024-03-06T08:04:33;76.47;;;25.93;;
11473;SDS011;5793;52.238;13.438;2024-03-06T08:07:02;57.53;;;26.43;;
11473;SDS011;5793;52.238;13.438;2024-03-06T08:09:30;56.37;;;26.03;;
11473;SDS011;5793;52.238;13.438;2024-03-06T08:11:57;53.30;;;24.67;;
11473;SDS011;5793;52.238;13.438;2024-03-06T08:14:26;64.83;;;25.73;;
11473;SDS011;5793;52.238;13.438;2024-03-06T08:16:54;53.83;;;25.00;;
11473;SDS011;5793;52.238;13.438;2024-03-06T08:19:24;46.53;;;23.27;;
11473;SDS011;5793;52.238;13.438;2024-03-06T08:21:52;49.13;;;24.47;;
11473;SDS011;5793;52.238;13.438;2024-03-06T08:24:20;42.50;;;22.97;;
11473;SDS011;5793;52.238;13.438;2024-03-06T08:26:48;43.83;;;21.23;;
11473;SDS011;5793;52.238;13.438;2024-03-06T08:29:16;48.07;;;23.50;;
11473;SDS011;5793;52.238;13.438;2024-03-06T08:31:43;35.33;;;21.00;;
11473;SDS011;5793;52.238;13.438;2024-03-06T08:34:11;40.00;;;22.60;;
11473;SDS011;5793;52.238;13.438;2024-03-06T08:36:40;38.03;;;20.50;;
11473;SDS011;5793;52.238;13.438;2024-03-06T08:39:08;38.27;;;20.63;;
11473;SDS011;5793;52.238;13.438;2024-03-06T08:41:41;36.60;;;20.77;;
11473;SDS011;5793;52.238;13.438;2024-03-06T08:44:09;37.47;;;19.20;;
11473;SDS011;5793;52.238;13.438;2024-03-06T08:46:37;41.27;;;19.63;;
11473;SDS011;5793;52.238;13.438;2024-03-06T08:49:05;37.47;;;20.80;;
11473;SDS011;5793;52.238;13.438;2024-03-06T08:51:36;36.47;;;21.33;;
11473;SDS011;5793;52.238;13.438;2024-03-06T08:54:05;41.63;;;22.10;;
11473;SDS011;5793;52.238;13.438;2024-03-06T08:56:36;32.00;;;20.57;;
11473;SDS011;5793;52.238;13.438;2024-03-06T08:59:03;33.63;;;20.10;;
11473;SDS011;5793;52.238;13.438;2024-03-06T09:01:31;33.30;;;21.17;;
11473;SDS011;5793;52.238;13.438;2024-03-06T09:03:59;34.30;;;20.60;;
11473;SDS011;5793;52.238;13.438;2024-03-06T09:06:27;32.17;;;19.60;;
11473;SDS011;5793;52.238;13.438;2024-03-06T09:08:55;32.67;;;20.53;;
11473;SDS011;5793;52.238;13.438;2024-03-06T09:11:24;30.80;;;20.47;;
11473;SDS011;5793;52.238;13.438;2024-03-06T09:13:52;30.67;;;19.67;;
11473;SDS011;5793;52.238;13.438;2024-03-06T09:16:20;32.33;;;20.17;;
11473;SDS011;5793;52.238;13.438;2024-03-06T09:18:48;33.20;;;19.43;;
11473;SDS011;5793;52.238;13.438;2024-03-06T09:21:16;31.70;;;19.73;;
11473;SDS011;5793;52.238;13.438;2024-03-06T09:23:43;29.10;;;20.27;;
11473;SDS011;5793;52.238;13.438;2024-03-06T09:26:11;30.30;;;18.87;;
11473;SDS011;5793;52.238;13.438;2024-03-06T09:28:40;27.17;;;19.03;;
11473;SDS011;5793;52.238;13.438;2024-03-06T09:31:08;37.43;;;20.10;;
11473;SDS011;5793;52.238;13.438;2024-03-06T09:33:36;33.30;;;21.37;;
11473;SDS011;5793;52.238;13.438;2024-03-06T09:36:06;31.30;;;20.37;;
11473;SDS011;5793;52.238;13.438;2024-03-06T09:38:39;32.90;;;19.43;;
11473;SDS011;5793;52.238;13.438;2024-03-06T09:41:08;27.93;;;19.30;;
11473;SDS011;5793;52.238;13.438;2024-03-06T09:43:36;31.23;;;20.57;;
11473;SDS011;5793;52.238;13.438;2024-03-06T09:46:05;30.03;;;20.63;;
11473;SDS011;5793;52.238;13.438;2024-03-06T09:48:33;28.70;;;20.13;;
11473;SDS011;5793;52.238;13.438;2024-03-06T09:51:05;28.13;;;19.17;;
11473;SDS011;5793;52.238;13.438;2024-03-06T09:53:33;24.77;;;18.13;;
11473;SDS011;5793;52.238;13.438;2024-03-06T09:56:01;28.53;;;20.23;;
11473;SDS011;5793;52.238;13.438;2024-03-06T09:58:29;25.13;;;17.30;;
11473;SDS011;5793;52.238;13.438;2024-03-06T10:00:57;25.73;;;18.07;;
11473;SDS011;5793;52.238;13.438;2024-03-06T10:03:28;29.07;;;19.70;;
11473;SDS011;5793;52.238;13.438;2024-03-06T10:05:56;27.43;;;18.60;;
11473;SDS011;5793;52.238;13.438;2024-03-06T10:08:28;26.50;;;17.70;;
11473;SDS011;5793;52.238;13.438;2024-03-06T10:10:55;25.80;;;17.37;;
11473;SDS011;5793;52.238;13.438;2024-03-06T10:13:24;27.30;;;16.70;;
11473;SDS011;5793;52.238;13.438;2024-03-06T10:15:56;20.77;;;14.67;;
11473;SDS011;5793;52.238;13.438;2024-03-06T10:18:26;21.00;;;15.07;;
11473;SDS011;5793;52.238;13.438;2024-03-06T10:20:56;19.73;;;14.63;;
11473;SDS011;5793;52.238;13.438;2024-03-06T10:23:24;18.27;;;13.67;;
11473;SDS011;5793;52.238;13.438;2024-03-06T10:25:54;17.50;;;13.17;;
11473;SDS011;5793;52.238;13.438;2024-03-06T10:28:23;18.33;;;13.33;;
11473;SDS011;5793;52.238;13.438;2024-03-06T10:30:51;30.97;;;13.77;;
11473;SDS011;5793;52.238;13.438;2024-03-06T10:33:29;17.63;;;11.80;;
11473;SDS011;5793;52.238;13.438;2024-03-06T10:36:00;16.03;;;11.87;;
11473;SDS011;5793;52.238;13.438;2024-03-06T10:38:30;16.97;;;12.50;;
11473;SDS011;5793;52.238;13.438;2024-03-06T10:41:03;16.93;;;12.43;;
11473;SDS011;5793;52.238;13.438;2024-03-06T10:43:34;16.07;;;12.40;;
11473;SDS011;5793;52.238;13.438;2024-03-06T10:46:06;25.10;;;12.67;;
11473;SDS011;5793;52.238;13.438;2024-03-06T10:48:38;14.83;;;12.03;;
11473;SDS011;5793;52.238;13.438;2024-03-06T10:51:09;17.50;;;12.93;;
11473;SDS011;5793;52.238;13.438;2024-03-06T10:53:40;16.43;;;12.57;;
11473;SDS011;5793;52.238;13.438;2024-03-06T10:56:10;17.53;;;13.00;;
11473;SDS011;5793;52.238;13.438;2024-03-06T10:58:38;16.27;;;12.70;;
11473;SDS011;5793;52.238;13.438;2024-03-06T11:01:08;17.50;;;11.70;;
11473;SDS011;5793;52.238;13.438;2024-03-06T11:03:36;15.50;;;12.43;;
11473;SDS011;5793;52.238;13.438;2024-03-06T11:06:05;14.63;;;11.17;;
11473;SDS011;5793;52.238;13.438;2024-03-06T11:08:35;17.40;;;11.90;;
11473;SDS011;5793;52.238;13.438;2024-03-06T11:11:19;16.07;;;11.37;;
11473;SDS011;5793;52.238;13.438;2024-03-06T11:13:48;13.07;;;11.00;;
11473;SDS011;5793;52.238;13.438;2024-03-06T11:16:16;13.87;;;11.23;;
11473;SDS011;5793;52.238;13.438;2024-03-06T11:18:44;22.93;;;12.57;;
11473;SDS011;5793;52.238;13.438;2024-03-06T11:21:29;16.40;;;11.80;;
11473;SDS011;5793;52.238;13.438;2024-03-06T11:26:54;14.73;;;11.37;;
11473;SDS011;5793;52.238;13.438;2024-03-06T11:29:26;14.70;;;11.03;;
11473;SDS011;5793;52.238;13.438;2024-03-06T11:31:59;16.67;;;10.77;;
11473;SDS011;5793;52.238;13.438;2024-03-06T11:34:34;14.60;;;11.80;;
11473;SDS011;5793;52.238;13.438;2024-03-06T11:37:05;15.57;;;12.03;;
11473;SDS011;5793;52.238;13.438;2024-03-06T11:39:38;15.07;;;12.10;;
11473;SDS011;5793;52.238;13.438;2024-03-06T11:42:07;14.77;;;11.77;;
11473;SDS011;5793;52.238;13.438;2024-03-06T11:44:35;15.77;;;12.53;;
11473;SDS011;5793;52.238;13.438;2024-03-06T11:47:05;13.87;;;10.40;;
11473;SDS011;5793;52.238;13.438;2024-03-06T11:49:35;14.43;;;11.10;;
11473;SDS011;5793;52.238;13.438;2024-03-06T11:52:05;15.17;;;10.70;;
11473;SDS011;5793;52.238;13.438;2024-03-06T11:54:34;12.17;;;9.83;;
11473;SDS011;5793;52.238;13.438;2024-03-06T11:57:04;13.37;;;10.10;;
11473;SDS011;5793;52.238;13.438;2024-03-06T11:59:33;16.23;;;10.53;;
11473;SDS011;5793;52.238;13.438;2024-03-06T12:02:03;12.30;;;10.37;;
11473;SDS011;5793;52.238;13.438;2024-03-06T12:04:33;13.70;;;10.17;;
11473;SDS011;5793;52.238;13.438;2024-03-06T12:07:03;10.83;;;9.30;;
11473;SDS011;5793;52.238;13.438;2024-03-06T12:09:34;12.93;;;10.00;;
11473;SDS011;5793;52.238;13.438;2024-03-06T12:12:09;11.77;;;9.00;;
11473;SDS011;5793;52.238;13.438;2024-03-06T12:14:38;12.90;;;9.40;;
11473;SDS011;5793;52.238;13.438;2024-03-06T12:17:10;14.50;;;9.17;;
11473;SDS011;5793;52.238;13.438;2024-03-06T12:19:41;12.07;;;9.30;;
11473;SDS011;5793;52.238;13.438;2024-03-06T12:22:10;12.63;;;8.50;;
11473;SDS011;5793;52.238;13.438;2024-03-06T12:24:38;12.33;;;8.20;;
11473;SDS011;5793;52.238;13.438;2024-03-06T12:27:07;10.63;;;8.30;;
11473;SDS011;5793;52.238;13.438;2024-03-06T12:29:36;12.10;;;8.77;;
11473;SDS011;5793;52.238;13.438;2024-03-06T12:32:15;12.53;;;9.33;;
11473;SDS011;5793;52.238;13.438;2024-03-06T12:34:44;10.77;;;8.60;;
11473;SDS011;5793;52.238;13.438;2024-03-06T12:37:28;12.93;;;8.90;;
11473;SDS011;5793;52.238;13.438;2024-03-06T12:40:01;13.83;;;9.87;;
11473;SDS011;5793;52.238;13.438;2024-03-06T12:42:32;12.00;;;9.47;;
11473;SDS011;5793;52.238;13.438;2024-03-06T12:45:00;10.67;;;8.50;;
11473;SDS011;5793;52.238;13.438;2024-03-06T12:47:29;10.37;;;8.40;;
11473;SDS011;5793;52.238;13.438;2024-03-06T12:49:58;10.20;;;8.43;;
11473;SDS011;5793;52.238;13.438;2024-03-06T12:52:25;9.43;;;7.37;;
11473;SDS011;5793;52.238;13.438;2024-03-06T12:54:53;11.13;;;7.73;;
11473;SDS011;5793;52.238;13.438;2024-03-06T12:57:21;9.90;;;7.60;;
11473;SDS011;5793;52.238;13.438;2024-03-06T12:59:50;9.83;;;7.27;;
11473;SDS011;5793;52.238;13.438;2024-03-06T13:02:18;8.13;;;6.40;;
11473;SDS011;5793;52.238;13.438;2024-03-06T13:04:46;12.30;;;6.60;;
11473;SDS011;5793;52.238;13.438;2024-03-06T13:07:13;9.20;;;6.83;;
11473;SDS011;5793;52.238;13.438;2024-03-06T13:09:41;13.27;;;6.73;;
11473;SDS011;5793;52.238;13.438;2024-03-06T13:12:09;8.50;;;6.30;;
11473;SDS011;5793;52.238;13.438;2024-03-06T13:14:37;12.77;;;7.37;;
11473;SDS011;5793;52.238;13.438;2024-03-06T13:17:07;8.40;;;6.70;;
11473;SDS011;5793;52.238;13.438;2024-03-06T13:19:34;10.00;;;6.70;;
11473;SDS011;5793;52.238;13.438;2024-03-06T13:22:02;14.70;;;7.43;;
11473;SDS011;5793;52.238;13.438;2024-03-06T13:24:33;8.77;;;7.27;;
11473;SDS011;5793;52.238;13.438;2024-03-06T13:27:03;9.83;;;7.50;;
11473;SDS011;5793;52.238;13.438;2024-03-06T13:29:30;9.50;;;7.47;;
11473;SDS011;5793;52.238;13.438;2024-03-06T13:31:58;12.80;;;8.10;;
11473;SDS011;5793;52.238;13.438;2024-03-06T13:34:27;14.27;;;7.97;;
11473;SDS011;5793;52.238;13.438;2024-03-06T13:36:57;10.10;;;8.07;;
11473;SDS011;5793;52.238;13.438;2024-03-06T13:39:25;12.07;;;8.17;;
11473;SDS011;5793;52.238;13.438;2024-03-06T13:41:53;12.80;;;8.43;;
11473;SDS011;5793;52.238;13.438;2024-03-06T13:44:21;11.73;;;8.20;;
11473;SDS011;5793;52.238;13.438;2024-03-06T13:46:49;11.37;;;8.30;;
11473;SDS011;5793;52.238;13.438;2024-03-06T13:49:35;10.20;;;7.70;;
11473;SDS011;5793;52.238;13.438;2024-03-06T13:52:05;11.73;;;8.67;;
11473;SDS011;5793;52.238;13.438;2024-03-06T13:54:37;11.73;;;8.97;;
11473;SDS011;5793;52.238;13.438;2024-03-06T13:57:05;12.43;;;9.20;;
11473;SDS011;5793;52.238;13.438;2024-03-06T13:59:33;12.33;;;8.07;;
11473;SDS011;5793;52.238;13.438;2024-03-06T14:02:02;9.83;;;8.50;;
11473;SDS011;5793;52.238;13.438;2024-03-06T14:04:30;11.33;;;9.33;;
11473;SDS011;5793;52.238;13.438;2024-03-06T14:06:59;15.00;;;9.47;;
11473;SDS011;5793;52.238;13.438;2024-03-06T14:09:27;12.57;;;9.63;;
11473;SDS011;5793;52.238;13.438;2024-03-06T14:11:55;12.90;;;8.93;;
11473;SDS011;5793;52.238;13.438;2024-03-06T14:14:23;16.40;;;10.50;;
11473;SDS011;5793;52.238;13.438;2024-03-06T14:16:51;12.70;;;9.53;;
11473;SDS011;5793;52.238;13.438;2024-03-06T14:19:19;13.33;;;9.17;;
11473;SDS011;5793;52.238;13.438;2024-03-06T14:21:47;14.67;;;10.40;;
11473;SDS011;5793;52.238;13.438;2024-03-06T14:24:17;12.10;;;10.50;;
11473;SDS011;5793;52.238;13.438;2024-03-06T14:26:46;14.63;;;10.77;;
11473;SDS011;5793;52.238;13.438;2024-03-06T14:29:15;15.27;;;10.93;;
11473;SDS011;5793;52.238;13.438;2024-03-06T14:31:43;12.97;;;9.70;;
11473;SDS011;5793;52.238;13.438;2024-03-06T14:34:10;13.47;;;10.20;;
11473;SDS011;5793;52.238;13.438;2024-03-06T14:36:38;13.47;;;9.83;;
11473;SDS011;5793;52.238;13.438;2024-03-06T14:39:08;12.43;;;10.33;;
11473;SDS011;5793;52.238;13.438;2024-03-06T14:41:38;13.63;;;10.00;;